Detall de PIREP

Printer-friendly versionPDF version

[2015/08/28 16:58:00]
Flight IATA:CT3242
Pilot Number:042
Company ICAO:CAT
Aircraft Type:B738/F
PAX:95
Departing Airport: LEPA
Destination Airport: LBSF
Alternate Airport:LBPD
Online: VATSIM
Route: MEROS UN853 LUMAS UT16 TINOT UM731 MALAV UM601 ORVEX UM603 POKAV UM620 SOR UM742 PAPIZ UT214 DOBAR UN141 DISOR UL608 FSK UN128 ODIKO UM987 EVIVI M987 BLO
Flight Level:F350
No Slew and time accel
No pause
Crash detect
Detect pilot in Cockpit between each 30 and 45 minutes
16:58 Zero fuel Weight: 121805 Lbs, Fuel Weight: 46051 Lbs
16:58 VATSIM:LEPA 281630Z 23010KT 200V270 9999 FEW025 29/23 Q1017 NOSIG
16:58 VATSIM:LBSF 281630Z 13007KT CAVOK 29/09 Q1022 NOSIG
17:09 Parking Brakes off
17:23 Take-off
17:23 Take off Weight: 166981 Lbs
17:23 Wind: 237º @ 007 Knots Heading: 238º
17:23 POS N39º 33´ 07´´ E002º 43´ 17´´
17:23 Gear Up: 179 Knots
17:23 Flaps:4 at 179 Knots
17:23 Flaps:3 at 187 Knots
17:24 Flaps:2 at 203 Knots
17:24 Flaps:1 at 201 Knots
17:25 Flaps:0 at 226 Knots
17:38 Wind:071º@011 Knots Heading: 059º Ground Speed: 454 Knots Altitude 25406 ft
17:47 TOC
17:47 Fuel Weight: 40519 Lb
17:53 Wind:085º@017 Knots Heading: 012º Ground Speed: 456 Knots Altitude 35147 ft
18:08 Wind:087º@012 Knots Heading: 123º Ground Speed: 451 Knots Altitude 35164 ft
18:23 Wind:074º@023 Knots Heading: 124º Ground Speed: 446 Knots Altitude 35141 ft
18:38 Wind:071º@016 Knots Heading: 084º Ground Speed: 444 Knots Altitude 35167 ft
18:53 Wind:068º@015 Knots Heading: 093º Ground Speed: 445 Knots Altitude 35173 ft
19:08 Wind:071º@019 Knots Heading: 081º Ground Speed: 440 Knots Altitude 35147 ft
19:23 Wind:087º@029 Knots Heading: 084º Ground Speed: 430 Knots Altitude 35147 ft
19:38 Wind:086º@037 Knots Heading: 070º Ground Speed: 423 Knots Altitude 35137 ft
19:53 Wind:075º@040 Knots Heading: 091º Ground Speed: 419 Knots Altitude 35223 ft
20:04 TOD
20:04 Fuel Weight: 27913 Lb
20:08 Wind:059º@028 Knots Heading: 011º Ground Speed: 410 Knots Altitude 27004 ft
20:17 Flaps:1 at 237 Knots
20:18 Flaps:2 at 195 Knots
20:21 Flaps:3 at 199 Knots
20:23 Wind:091º@004 Knots Heading: 291º Ground Speed: 210 Knots Altitude 4996 ft
20:27 Gear Down: 180 Knots
20:27 Flaps:4 at 180 Knots
20:27 Flaps:5 at 178 Knots
20:27 Flaps:6 at 168 Knots
20:27 Flaps:7 at 155 Knots
20:28 Flaps:8 at 147 Knots
20:31 TouchDown:Rate -110 ft/min Speed: 138 Knots
20:31 VATSIM:LBSF 282000Z 14008KT CAVOK 20/11 Q1023 NOSIG
20:31 Land
20:31 Wind:139º@008 Knots
20:31 Heading: 282º
20:31 Flight Duration: 03:08
20:31 Landing Weight: 148093 Lbs
20:31 POS N42º 41´ 45´´ E023º 24´ 15´´
20:33 Parking brakes on
20:33 Block to Block Duration: 03:24
20:33 Final Fuel: 26181 Lbls
20:33 Spent Fuel: 19869 Lbls
20:33 Flight Length: 1293 NM
20:33 TOD Land Length: 130 NM

Exportar CSV

Powered by Drupal - Modified by Danger4k